メインページ
METAR-TAF:

METAR-TAF

空港 :

ベリーズシティ, ベリーズ

フィリップス・S・W・ゴールドソン国際空港

緯度: 17-32N, 経度: 088-18W, 海抜: 5m

現時点の気象観測

当レポートは36分前の01:00(UTC)に作成
無風
気温 27°C
湿度 94%
気圧 1010 hPa
視程10km以上
高度2000ftの雲はほとんどない

METAR: MZBZ 240100Z 00000KT 9999 FEW020 27/26 A2983 Q1010 NOSIG

時間: 19:36 (01:36 UTC)

予報

当レポートは4時間36分前の21:00(UTC)に作成
予報は24日の 00時(UTC)から 24日の 24時(UTC)まで有効
の風 7kt
視程10km以上
高度2200ftの雲は散在している
24日の 04時(UTC)から 24日の 16時(UTC)まで徐々に
北西の風 8kt
確率 40% :
24日の 04時(UTC)から 24日の 12時(UTC)まで一時的に
視程: 4000m
高度1400ftの千切れ雲あり
にわか雨

TAF: MZBZ 232100Z 2400/2424 08007KT 9999 SCT022 BECMG 2404/2416 32008KT PROB40 TEMPO 2404/2412 4000 SHRA BKN014

4,000以上の空港の気象観測と天気予報(METAR報とTAF報)

利用可能な観測所は地図上に黄色い丸と赤い丸で示す。

丸の上にカーソルを重ねると観測所名を参照できる。

次にクリックすると気象観測と天気予報を参照できる。

マップの切り替え:黒色「×」印の緑ボタンをクリックして拡大、「-」印の緑ボタンをクリックして縮小、緑色の三角印をクリックして隣りの地図に切り替え


METAR-TAF: